sensor_id;sensor_type;location;lat;lon;timestamp;pressure;altitude;pressure_sealevel;temperature;humidity
9839;BME280;4958;48.150;11.506;2023-05-29T00:02:19;95562.31;;;17.42;50.60
9839;BME280;4958;48.150;11.506;2023-05-29T00:04:46;95558.88;;;17.30;50.75
9839;BME280;4958;48.150;11.506;2023-05-29T00:07:12;95557.38;;;17.22;51.96
9839;BME280;4958;48.150;11.506;2023-05-29T00:09:38;95557.94;;;17.24;51.83
9839;BME280;4958;48.150;11.506;2023-05-29T00:12:07;95553.91;;;17.29;51.26
9839;BME280;4958;48.150;11.506;2023-05-29T00:14:33;95559.09;;;17.29;50.98
9839;BME280;4958;48.150;11.506;2023-05-29T00:17:00;95554.91;;;17.27;51.42
9839;BME280;4958;48.150;11.506;2023-05-29T00:19:27;95556.34;;;17.23;51.91
9839;BME280;4958;48.150;11.506;2023-05-29T00:21:54;95555.50;;;17.11;51.59
9839;BME280;4958;48.150;11.506;2023-05-29T00:24:20;95560.78;;;17.05;52.16
9839;BME280;4958;48.150;11.506;2023-05-29T00:26:47;95559.59;;;17.01;51.76
9839;BME280;4958;48.150;11.506;2023-05-29T00:29:14;95558.31;;;16.91;52.23
9839;BME280;4958;48.150;11.506;2023-05-29T00:31:41;95557.53;;;16.91;52.59
9839;BME280;4958;48.150;11.506;2023-05-29T00:34:08;95554.72;;;16.92;52.48
9839;BME280;4958;48.150;11.506;2023-05-29T00:36:34;95550.63;;;16.97;52.22
9839;BME280;4958;48.150;11.506;2023-05-29T00:39:02;95546.91;;;16.92;53.19
9839;BME280;4958;48.150;11.506;2023-05-29T00:41:28;95553.91;;;16.92;52.79
9839;BME280;4958;48.150;11.506;2023-05-29T00:43:55;95558.75;;;16.88;53.02
9839;BME280;4958;48.150;11.506;2023-05-29T00:46:23;95548.41;;;16.82;52.69
9839;BME280;4958;48.150;11.506;2023-05-29T00:48:49;95547.44;;;16.76;53.47
9839;BME280;4958;48.150;11.506;2023-05-29T00:51:16;95550.22;;;16.81;53.20
9839;BME280;4958;48.150;11.506;2023-05-29T00:53:43;95543.84;;;16.77;53.19
9839;BME280;4958;48.150;11.506;2023-05-29T00:56:10;95549.25;;;16.76;53.41
9839;BME280;4958;48.150;11.506;2023-05-29T00:58:38;95556.34;;;16.69;53.93
9839;BME280;4958;48.150;11.506;2023-05-29T01:01:04;95549.56;;;16.61;53.83
9839;BME280;4958;48.150;11.506;2023-05-29T01:03:33;95553.91;;;16.49;54.46
9839;BME280;4958;48.150;11.506;2023-05-29T01:06:00;95552.25;;;16.54;53.72
9839;BME280;4958;48.150;11.506;2023-05-29T01:08:28;95562.56;;;16.61;54.40
9839;BME280;4958;48.150;11.506;2023-05-29T01:11:00;95560.38;;;16.65;54.44
9839;BME280;4958;48.150;11.506;2023-05-29T01:13:31;95549.94;;;16.71;54.17
9839;BME280;4958;48.150;11.506;2023-05-29T01:16:05;95550.13;;;16.70;53.68
9839;BME280;4958;48.150;11.506;2023-05-29T01:18:41;95558.78;;;16.64;54.10
9839;BME280;4958;48.150;11.506;2023-05-29T01:21:14;95550.59;;;16.60;54.09
9839;BME280;4958;48.150;11.506;2023-05-29T01:23:53;95549.06;;;16.52;54.79
9839;BME280;4958;48.150;11.506;2023-05-29T01:26:48;95548.44;;;16.32;55.50
9839;BME280;4958;48.150;11.506;2023-05-29T01:29:18;95548.59;;;16.37;54.82
9839;BME280;4958;48.150;11.506;2023-05-29T01:31:46;95553.94;;;16.42;54.73
9839;BME280;4958;48.150;11.506;2023-05-29T01:34:13;95553.72;;;16.44;55.31
9839;BME280;4958;48.150;11.506;2023-05-29T01:36:39;95556.59;;;16.36;55.32
9839;BME280;4958;48.150;11.506;2023-05-29T01:39:07;95560.47;;;16.27;55.88
9839;BME280;4958;48.150;11.506;2023-05-29T01:41:34;95551.63;;;16.09;56.31
9839;BME280;4958;48.150;11.506;2023-05-29T01:44:04;95554.00;;;16.11;55.93
9839;BME280;4958;48.150;11.506;2023-05-29T01:46:34;95566.00;;;16.12;56.16
9839;BME280;4958;48.150;11.506;2023-05-29T01:49:01;95553.63;;;16.07;55.84
9839;BME280;4958;48.150;11.506;2023-05-29T01:51:28;95557.72;;;15.97;56.88
9839;BME280;4958;48.150;11.506;2023-05-29T01:53:57;95559.50;;;15.96;56.65
9839;BME280;4958;48.150;11.506;2023-05-29T01:56:23;95549.06;;;16.03;56.13
9839;BME280;4958;48.150;11.506;2023-05-29T01:58:52;95551.25;;;16.06;56.49
9839;BME280;4958;48.150;11.506;2023-05-29T02:01:20;95553.47;;;16.02;56.17
9839;BME280;4958;48.150;11.506;2023-05-29T02:03:47;95552.88;;;16.00;55.95
9839;BME280;4958;48.150;11.506;2023-05-29T02:06:14;95559.16;;;15.86;57.05
9839;BME280;4958;48.150;11.506;2023-05-29T02:08:40;95553.81;;;15.81;56.65
9839;BME280;4958;48.150;11.506;2023-05-29T02:11:07;95552.47;;;15.72;57.54
9839;BME280;4958;48.150;11.506;2023-05-29T02:13:33;95552.09;;;15.68;57.55
9839;BME280;4958;48.150;11.506;2023-05-29T02:16:00;95550.47;;;15.74;57.04
9839;BME280;4958;48.150;11.506;2023-05-29T02:18:27;95549.78;;;15.85;56.74
9839;BME280;4958;48.150;11.506;2023-05-29T02:20:54;95546.78;;;15.88;57.37
9839;BME280;4958;48.150;11.506;2023-05-29T02:23:20;95554.00;;;15.79;56.75
9839;BME280;4958;48.150;11.506;2023-05-29T02:25:47;95544.50;;;15.67;57.17
9839;BME280;4958;48.150;11.506;2023-05-29T02:28:13;95553.47;;;15.71;56.99
9839;BME280;4958;48.150;11.506;2023-05-29T02:30:40;95545.72;;;15.64;57.04
9839;BME280;4958;48.150;11.506;2023-05-29T02:33:06;95548.91;;;15.66;56.48
9839;BME280;4958;48.150;11.506;2023-05-29T02:35:35;95553.28;;;15.72;56.29
9839;BME280;4958;48.150;11.506;2023-05-29T02:38:01;95543.72;;;15.66;56.70
9839;BME280;4958;48.150;11.506;2023-05-29T02:40:28;95551.50;;;15.66;56.82
9839;BME280;4958;48.150;11.506;2023-05-29T02:42:54;95548.16;;;15.52;57.10
9839;BME280;4958;48.150;11.506;2023-05-29T02:45:21;95552.97;;;15.56;56.42
9839;BME280;4958;48.150;11.506;2023-05-29T02:47:47;95551.75;;;15.51;56.81
9839;BME280;4958;48.150;11.506;2023-05-29T02:50:13;95546.34;;;15.53;56.90
9839;BME280;4958;48.150;11.506;2023-05-29T02:52:42;95547.56;;;15.57;56.34
9839;BME280;4958;48.150;11.506;2023-05-29T02:55:08;95540.78;;;15.49;56.30
9839;BME280;4958;48.150;11.506;2023-05-29T02:57:35;95548.78;;;15.41;57.00
9839;BME280;4958;48.150;11.506;2023-05-29T03:00:02;95543.88;;;15.33;57.28
9839;BME280;4958;48.150;11.506;2023-05-29T03:02:31;95544.03;;;15.38;57.00
9839;BME280;4958;48.150;11.506;2023-05-29T03:04:58;95547.47;;;15.32;57.36
9839;BME280;4958;48.150;11.506;2023-05-29T03:07:25;95552.34;;;15.09;57.59
9839;BME280;4958;48.150;11.506;2023-05-29T03:09:53;95552.34;;;15.09;58.32
9839;BME280;4958;48.150;11.506;2023-05-29T03:12:20;95552.78;;;14.99;58.90
9839;BME280;4958;48.150;11.506;2023-05-29T03:14:46;95557.13;;;15.05;58.57
9839;BME280;4958;48.150;11.506;2023-05-29T03:17:13;95559.13;;;15.10;58.41
9839;BME280;4958;48.150;11.506;2023-05-29T03:19:39;95554.53;;;15.12;57.73
9839;BME280;4958;48.150;11.506;2023-05-29T03:22:06;95557.47;;;15.22;57.51
9839;BME280;4958;48.150;11.506;2023-05-29T03:24:32;95557.66;;;15.20;57.71
9839;BME280;4958;48.150;11.506;2023-05-29T03:27:01;95561.31;;;15.13;58.50
9839;BME280;4958;48.150;11.506;2023-05-29T03:29:28;95562.72;;;15.02;58.32
9839;BME280;4958;48.150;11.506;2023-05-29T03:31:55;95556.53;;;15.03;58.13
9839;BME280;4958;48.150;11.506;2023-05-29T03:34:22;95563.50;;;15.03;58.33
9839;BME280;4958;48.150;11.506;2023-05-29T03:36:48;95563.56;;;14.96;58.89
9839;BME280;4958;48.150;11.506;2023-05-29T03:39:14;95560.72;;;15.04;58.53
9839;BME280;4958;48.150;11.506;2023-05-29T03:41:41;95562.72;;;15.09;58.99
9839;BME280;4958;48.150;11.506;2023-05-29T03:44:09;95574.81;;;15.21;58.96
9839;BME280;4958;48.150;11.506;2023-05-29T03:46:35;95572.28;;;15.15;58.74
9839;BME280;4958;48.150;11.506;2023-05-29T03:49:02;95569.91;;;15.07;59.32
9839;BME280;4958;48.150;11.506;2023-05-29T03:51:28;95580.31;;;15.00;59.69
9839;BME280;4958;48.150;11.506;2023-05-29T03:53:56;95584.25;;;15.09;59.43
9839;BME280;4958;48.150;11.506;2023-05-29T03:56:22;95576.06;;;15.06;59.47
9839;BME280;4958;48.150;11.506;2023-05-29T03:58:49;95573.28;;;15.14;59.07
9839;BME280;4958;48.150;11.506;2023-05-29T04:01:17;95585.44;;;15.20;59.67
9839;BME280;4958;48.150;11.506;2023-05-29T04:03:43;95580.25;;;15.20;59.33
9839;BME280;4958;48.150;11.506;2023-05-29T04:06:10;95575.81;;;15.27;59.18
9839;BME280;4958;48.150;11.506;2023-05-29T04:08:36;95577.19;;;15.36;59.04
9839;BME280;4958;48.150;11.506;2023-05-29T04:11:03;95581.53;;;15.42;59.12
9839;BME280;4958;48.150;11.506;2023-05-29T04:13:30;95584.72;;;15.44;58.98
9839;BME280;4958;48.150;11.506;2023-05-29T04:15:56;95581.09;;;15.52;58.92
9839;BME280;4958;48.150;11.506;2023-05-29T04:18:24;95594.06;;;15.52;59.33
9839;BME280;4958;48.150;11.506;2023-05-29T04:20:51;95588.88;;;15.52;59.33
9839;BME280;4958;48.150;11.506;2023-05-29T04:23:18;95600.69;;;15.41;59.64
9839;BME280;4958;48.150;11.506;2023-05-29T04:25:45;95596.13;;;15.37;60.65
9839;BME280;4958;48.150;11.506;2023-05-29T04:28:12;95593.28;;;15.45;60.08
9839;BME280;4958;48.150;11.506;2023-05-29T04:30:38;95600.84;;;15.60;60.09
9839;BME280;4958;48.150;11.506;2023-05-29T04:33:07;95606.19;;;15.71;59.74
9839;BME280;4958;48.150;11.506;2023-05-29T04:35:36;95610.59;;;15.71;60.22
9839;BME280;4958;48.150;11.506;2023-05-29T04:38:02;95615.53;;;15.79;59.72
9839;BME280;4958;48.150;11.506;2023-05-29T04:40:30;95614.91;;;15.83;60.24
9839;BME280;4958;48.150;11.506;2023-05-29T04:42:57;95622.28;;;15.86;60.23
9839;BME280;4958;48.150;11.506;2023-05-29T04:45:25;95619.44;;;15.95;59.70
9839;BME280;4958;48.150;11.506;2023-05-29T04:47:53;95628.84;;;15.96;60.27
9839;BME280;4958;48.150;11.506;2023-05-29T04:50:21;95623.41;;;15.97;59.66
9839;BME280;4958;48.150;11.506;2023-05-29T04:52:50;95629.03;;;15.94;59.19
9839;BME280;4958;48.150;11.506;2023-05-29T04:55:16;95622.47;;;15.92;60.67
9839;BME280;4958;48.150;11.506;2023-05-29T04:57:43;95624.94;;;16.11;59.56
9839;BME280;4958;48.150;11.506;2023-05-29T05:00:10;95619.88;;;16.16;60.55
9839;BME280;4958;48.150;11.506;2023-05-29T05:02:40;95626.41;;;16.32;58.97
9839;BME280;4958;48.150;11.506;2023-05-29T05:05:07;95625.50;;;16.45;59.41
9839;BME280;4958;48.150;11.506;2023-05-29T05:07:33;95629.91;;;16.44;58.89
9839;BME280;4958;48.150;11.506;2023-05-29T05:10:01;95633.19;;;16.58;58.55
9839;BME280;4958;48.150;11.506;2023-05-29T05:12:28;95625.53;;;16.70;58.65
9839;BME280;4958;48.150;11.506;2023-05-29T05:14:54;95622.94;;;16.70;59.29
9839;BME280;4958;48.150;11.506;2023-05-29T05:17:21;95627.47;;;16.74;58.53
9839;BME280;4958;48.150;11.506;2023-05-29T05:19:48;95622.81;;;16.83;58.05
9839;BME280;4958;48.150;11.506;2023-05-29T05:22:15;95626.00;;;16.85;57.73
9839;BME280;4958;48.150;11.506;2023-05-29T05:24:41;95633.03;;;17.03;57.05
9839;BME280;4958;48.150;11.506;2023-05-29T05:27:09;95629.19;;;17.05;56.42
9839;BME280;4958;48.150;11.506;2023-05-29T05:29:35;95628.63;;;17.21;56.23
9839;BME280;4958;48.150;11.506;2023-05-29T05:32:02;95630.75;;;17.31;55.59
9839;BME280;4958;48.150;11.506;2023-05-29T05:34:29;95627.69;;;17.34;56.07
9839;BME280;4958;48.150;11.506;2023-05-29T05:36:55;95632.31;;;17.32;56.34
9839;BME280;4958;48.150;11.506;2023-05-29T05:39:22;95631.38;;;17.45;55.64
9839;BME280;4958;48.150;11.506;2023-05-29T05:41:51;95629.78;;;17.44;55.46
9839;BME280;4958;48.150;11.506;2023-05-29T05:44:22;95630.28;;;17.52;55.00
9839;BME280;4958;48.150;11.506;2023-05-29T05:46:49;95636.84;;;17.55;53.80
9839;BME280;4958;48.150;11.506;2023-05-29T05:49:18;95636.75;;;17.50;53.82
9839;BME280;4958;48.150;11.506;2023-05-29T05:51:47;95643.16;;;17.47;55.19
9839;BME280;4958;48.150;11.506;2023-05-29T05:54:22;95642.88;;;17.37;54.23
9839;BME280;4958;48.150;11.506;2023-05-29T05:56:53;95639.47;;;17.37;54.99
9839;BME280;4958;48.150;11.506;2023-05-29T05:59:28;95648.75;;;17.51;54.10
9839;BME280;4958;48.150;11.506;2023-05-29T06:02:37;95644.25;;;17.58;54.28
9839;BME280;4958;48.150;11.506;2023-05-29T06:11:13;95646.78;;;17.83;54.87
9839;BME280;4958;48.150;11.506;2023-05-29T06:13:48;95646.59;;;17.96;53.95
9839;BME280;4958;48.150;11.506;2023-05-29T06:19:32;95656.81;;;18.27;52.58
9839;BME280;4958;48.150;11.506;2023-05-29T06:23:53;95657.50;;;18.35;53.42
9839;BME280;4958;48.150;11.506;2023-05-29T06:25:25;95654.78;;;18.41;52.18
9839;BME280;4958;48.150;11.506;2023-05-29T06:28:35;95659.56;;;18.56;51.60
9839;BME280;4958;48.150;11.506;2023-05-29T06:40:35;95649.44;;;18.66;52.63
9839;BME280;4958;48.150;11.506;2023-05-29T06:43:02;95655.75;;;18.70;52.70
9839;BME280;4958;48.150;11.506;2023-05-29T06:45:28;95659.88;;;18.78;51.47
9839;BME280;4958;48.150;11.506;2023-05-29T06:48:07;95657.59;;;18.81;51.68
9839;BME280;4958;48.150;11.506;2023-05-29T06:50:58;95660.53;;;18.73;50.37
9839;BME280;4958;48.150;11.506;2023-05-29T06:53:26;95661.81;;;18.82;50.24
9839;BME280;4958;48.150;11.506;2023-05-29T06:55:52;95665.00;;;18.84;49.18
9839;BME280;4958;48.150;11.506;2023-05-29T06:58:25;95659.53;;;18.97;49.66
9839;BME280;4958;48.150;11.506;2023-05-29T07:01:35;95665.69;;;19.03;49.75
9839;BME280;4958;48.150;11.506;2023-05-29T07:04:46;95668.72;;;19.12;49.62
9839;BME280;4958;48.150;11.506;2023-05-29T07:10:29;95669.75;;;19.34;49.73
9839;BME280;4958;48.150;11.506;2023-05-29T07:17:03;95675.84;;;19.63;49.17
9839;BME280;4958;48.150;11.506;2023-05-29T07:23:09;95673.09;;;19.70;48.39
9839;BME280;4958;48.150;11.506;2023-05-29T07:29:05;95690.09;;;19.84;49.15
9839;BME280;4958;48.150;11.506;2023-05-29T07:31:46;95693.03;;;19.99;49.81
9839;BME280;4958;48.150;11.506;2023-05-29T07:34:25;95686.09;;;20.21;49.42
9839;BME280;4958;48.150;11.506;2023-05-29T07:37:29;95688.59;;;20.40;47.60
9839;BME280;4958;48.150;11.506;2023-05-29T07:40:08;95696.34;;;20.51;47.75
9839;BME280;4958;48.150;11.506;2023-05-29T07:42:59;95688.44;;;20.63;47.74
9839;BME280;4958;48.150;11.506;2023-05-29T07:45:34;95690.81;;;20.64;47.32
9839;BME280;4958;48.150;11.506;2023-05-29T07:48:33;95689.06;;;20.53;47.92
9839;BME280;4958;48.150;11.506;2023-05-29T07:52:17;95690.03;;;20.64;48.30
9839;BME280;4958;48.150;11.506;2023-05-29T07:55:09;95694.66;;;20.90;48.54
9839;BME280;4958;48.150;11.506;2023-05-29T07:58:35;95689.94;;;21.09;48.33
9839;BME280;4958;48.150;11.506;2023-05-29T08:11:12;95684.94;;;21.41;46.84
9839;BME280;4958;48.150;11.506;2023-05-29T08:14:19;95693.53;;;21.58;47.72
9839;BME280;4958;48.150;11.506;2023-05-29T08:16:59;95687.94;;;21.50;46.11
9839;BME280;4958;48.150;11.506;2023-05-29T08:19:39;95689.03;;;21.54;47.23
9839;BME280;4958;48.150;11.506;2023-05-29T08:22:50;95692.09;;;21.67;46.67
9839;BME280;4958;48.150;11.506;2023-05-29T08:26:25;95688.38;;;21.85;45.73
9839;BME280;4958;48.150;11.506;2023-05-29T08:28:48;95684.81;;;21.96;45.44
9839;BME280;4958;48.150;11.506;2023-05-29T08:31:22;95690.56;;;22.15;44.72
9839;BME280;4958;48.150;11.506;2023-05-29T08:34:00;95687.22;;;22.20;44.38
9839;BME280;4958;48.150;11.506;2023-05-29T08:36:44;95697.22;;;22.23;43.57
9839;BME280;4958;48.150;11.506;2023-05-29T08:48:04;95700.47;;;22.35;44.06
9839;BME280;4958;48.150;11.506;2023-05-29T08:50:37;95694.19;;;22.63;44.26
9839;BME280;4958;48.150;11.506;2023-05-29T08:53:07;95690.59;;;22.69;43.26
9839;BME280;4958;48.150;11.506;2023-05-29T08:55:34;95701.53;;;22.88;44.38
9839;BME280;4958;48.150;11.506;2023-05-29T08:58:01;95687.38;;;22.94;43.97
9839;BME280;4958;48.150;11.506;2023-05-29T09:00:27;95693.28;;;23.11;43.69
9839;BME280;4958;48.150;11.506;2023-05-29T09:02:54;95693.66;;;23.30;43.77
9839;BME280;4958;48.150;11.506;2023-05-29T09:05:21;95697.13;;;23.35;42.56
9839;BME280;4958;48.150;11.506;2023-05-29T09:07:49;95701.38;;;23.41;43.62
9839;BME280;4958;48.150;11.506;2023-05-29T09:10:16;95691.03;;;23.25;42.26
9839;BME280;4958;48.150;11.506;2023-05-29T09:12:42;95694.31;;;23.10;43.00
9839;BME280;4958;48.150;11.506;2023-05-29T09:15:17;95697.44;;;23.49;42.88
9839;BME280;4958;48.150;11.506;2023-05-29T09:17:44;95696.75;;;23.59;43.05
9839;BME280;4958;48.150;11.506;2023-05-29T09:20:15;95699.78;;;23.83;43.09
9839;BME280;4958;48.150;11.506;2023-05-29T09:22:57;95700.34;;;23.95;42.68
9839;BME280;4958;48.150;11.506;2023-05-29T09:25:24;95691.66;;;23.94;40.77
9839;BME280;4958;48.150;11.506;2023-05-29T09:27:54;95694.78;;;23.91;41.13
9839;BME280;4958;48.150;11.506;2023-05-29T09:57:47;95700.53;;;24.71;36.71
9839;BME280;4958;48.150;11.506;2023-05-29T10:00:15;95705.81;;;24.71;36.57
9839;BME280;4958;48.150;11.506;2023-05-29T10:33:04;95678.63;;;25.57;33.26
9839;BME280;4958;48.150;11.506;2023-05-29T11:27:39;95669.97;;;26.10;32.30
9839;BME280;4958;48.150;11.506;2023-05-29T11:30:06;95661.50;;;26.13;32.13
9839;BME280;4958;48.150;11.506;2023-05-29T11:32:34;95666.19;;;26.22;32.67
9839;BME280;4958;48.150;11.506;2023-05-29T11:35:04;95678.09;;;26.29;30.85
9839;BME280;4958;48.150;11.506;2023-05-29T11:37:34;95674.31;;;26.40;30.73
9839;BME280;4958;48.150;11.506;2023-05-29T11:40:03;95673.94;;;26.13;28.84
9839;BME280;4958;48.150;11.506;2023-05-29T11:42:29;95672.25;;;26.32;28.81
9839;BME280;4958;48.150;11.506;2023-05-29T11:45:09;95668.44;;;26.48;29.85
9839;BME280;4958;48.150;11.506;2023-05-29T11:47:50;95662.91;;;26.50;29.04
9839;BME280;4958;48.150;11.506;2023-05-29T11:50:18;95667.06;;;26.56;29.65
9839;BME280;4958;48.150;11.506;2023-05-29T11:52:45;95670.34;;;26.38;29.08
9839;BME280;4958;48.150;11.506;2023-05-29T11:55:12;95670.75;;;26.16;29.01
9839;BME280;4958;48.150;11.506;2023-05-29T11:57:38;95662.78;;;26.21;29.51
9839;BME280;4958;48.150;11.506;2023-05-29T12:00:07;95667.25;;;26.31;30.54
9839;BME280;4958;48.150;11.506;2023-05-29T12:02:38;95659.53;;;26.39;29.24
9839;BME280;4958;48.150;11.506;2023-05-29T12:05:07;95658.88;;;26.13;29.72
9839;BME280;4958;48.150;11.506;2023-05-29T12:07:34;95665.53;;;26.01;30.73
9839;BME280;4958;48.150;11.506;2023-05-29T12:10:10;95655.31;;;26.38;29.39
9839;BME280;4958;48.150;11.506;2023-05-29T12:12:37;95655.69;;;26.61;30.16
9839;BME280;4958;48.150;11.506;2023-05-29T12:15:07;95659.50;;;26.78;30.26
9839;BME280;4958;48.150;11.506;2023-05-29T12:17:34;95667.53;;;26.68;30.63
9839;BME280;4958;48.150;11.506;2023-05-29T12:20:03;95655.63;;;26.71;31.67
9839;BME280;4958;48.150;11.506;2023-05-29T12:22:33;95652.72;;;26.67;29.34
9839;BME280;4958;48.150;11.506;2023-05-29T12:25:05;95649.41;;;26.52;29.32
9839;BME280;4958;48.150;11.506;2023-05-29T12:27:32;95653.66;;;26.47;30.52
9839;BME280;4958;48.150;11.506;2023-05-29T12:30:03;95652.53;;;26.59;30.78
9839;BME280;4958;48.150;11.506;2023-05-29T12:32:36;95653.00;;;26.66;29.61
9839;BME280;4958;48.150;11.506;2023-05-29T12:35:10;95648.25;;;26.68;28.60
9839;BME280;4958;48.150;11.506;2023-05-29T12:37:42;95652.78;;;26.57;27.54
9839;BME280;4958;48.150;11.506;2023-05-29T12:40:16;95649.16;;;26.53;28.80
9839;BME280;4958;48.150;11.506;2023-05-29T12:42:42;95646.81;;;26.46;30.26
9839;BME280;4958;48.150;11.506;2023-05-29T12:45:09;95657.28;;;26.57;30.43
9839;BME280;4958;48.150;11.506;2023-05-29T12:47:37;95656.28;;;26.53;29.43
9839;BME280;4958;48.150;11.506;2023-05-29T12:50:20;95654.72;;;26.46;29.86
9839;BME280;4958;48.150;11.506;2023-05-29T12:52:53;95658.25;;;26.71;31.66
9839;BME280;4958;48.150;11.506;2023-05-29T12:55:37;95651.69;;;26.63;29.91
9839;BME280;4958;48.150;11.506;2023-05-29T12:58:13;95655.03;;;26.40;29.82
9839;BME280;4958;48.150;11.506;2023-05-29T13:00:59;95654.34;;;26.19;30.84
9839;BME280;4958;48.150;11.506;2023-05-29T13:03:27;95659.78;;;26.38;31.59
9839;BME280;4958;48.150;11.506;2023-05-29T13:05:54;95660.09;;;26.70;31.17
9839;BME280;4958;48.150;11.506;2023-05-29T13:08:20;95649.88;;;26.93;31.20
9839;BME280;4958;48.150;11.506;2023-05-29T13:10:47;95649.34;;;26.96;29.24
9839;BME280;4958;48.150;11.506;2023-05-29T13:13:21;95648.09;;;26.83;29.79
9839;BME280;4958;48.150;11.506;2023-05-29T13:15:47;95649.88;;;26.93;29.47
9839;BME280;4958;48.150;11.506;2023-05-29T13:21:14;95654.88;;;26.60;30.72
9839;BME280;4958;48.150;11.506;2023-05-29T13:23:44;95653.00;;;26.66;30.66
9839;BME280;4958;48.150;11.506;2023-05-29T13:26:10;95648.91;;;26.83;30.30
9839;BME280;4958;48.150;11.506;2023-05-29T13:28:37;95651.25;;;26.85;30.86
9839;BME280;4958;48.150;11.506;2023-05-29T13:31:03;95651.03;;;26.81;29.75
9839;BME280;4958;48.150;11.506;2023-05-29T13:33:30;95649.66;;;26.89;30.33
9839;BME280;4958;48.150;11.506;2023-05-29T13:35:56;95654.16;;;26.55;29.57
9839;BME280;4958;48.150;11.506;2023-05-29T13:38:24;95649.22;;;26.43;29.56
9839;BME280;4958;48.150;11.506;2023-05-29T13:40:50;95645.47;;;26.49;29.39
9839;BME280;4958;48.150;11.506;2023-05-29T13:43:17;95644.59;;;26.59;30.05
9839;BME280;4958;48.150;11.506;2023-05-29T13:45:43;95632.41;;;26.63;30.37
9839;BME280;4958;48.150;11.506;2023-05-29T13:48:10;95640.06;;;26.64;30.29
9839;BME280;4958;48.150;11.506;2023-05-29T13:50:36;95624.47;;;26.68;31.39
9839;BME280;4958;48.150;11.506;2023-05-29T13:53:03;95623.53;;;26.82;31.57
9839;BME280;4958;48.150;11.506;2023-05-29T13:55:31;95624.00;;;26.90;30.89
9839;BME280;4958;48.150;11.506;2023-05-29T13:58:02;95633.59;;;26.46;30.21
9839;BME280;4958;48.150;11.506;2023-05-29T14:00:45;95633.19;;;26.24;31.34
9839;BME280;4958;48.150;11.506;2023-05-29T14:03:12;95631.19;;;26.55;32.83
9839;BME280;4958;48.150;11.506;2023-05-29T14:05:39;95623.13;;;26.70;31.44
9839;BME280;4958;48.150;11.506;2023-05-29T14:08:05;95626.22;;;26.77;31.10
9839;BME280;4958;48.150;11.506;2023-05-29T14:10:35;95619.47;;;26.95;31.15
9839;BME280;4958;48.150;11.506;2023-05-29T14:13:01;95618.13;;;26.98;31.09
9839;BME280;4958;48.150;11.506;2023-05-29T14:15:28;95619.47;;;26.95;30.92
9839;BME280;4958;48.150;11.506;2023-05-29T14:17:54;95623.69;;;26.96;30.35
9839;BME280;4958;48.150;11.506;2023-05-29T14:20:21;95625.06;;;26.89;30.07
9839;BME280;4958;48.150;11.506;2023-05-29T14:22:47;95615.88;;;26.81;30.04
9839;BME280;4958;48.150;11.506;2023-05-29T14:25:14;95621.66;;;26.88;30.57
9839;BME280;4958;48.150;11.506;2023-05-29T14:27:42;95625.44;;;26.77;29.71
9839;BME280;4958;48.150;11.506;2023-05-29T14:30:09;95621.28;;;26.71;29.71
9839;BME280;4958;48.150;11.506;2023-05-29T14:32:35;95615.66;;;26.77;30.58
9839;BME280;4958;48.150;11.506;2023-05-29T14:35:02;95612.00;;;26.73;30.25
9839;BME280;4958;48.150;11.506;2023-05-29T14:40:44;95623.53;;;26.54;29.89
9839;BME280;4958;48.150;11.506;2023-05-29T14:43:23;95624.22;;;26.64;28.89
9839;BME280;4958;48.150;11.506;2023-05-29T14:45:56;95631.13;;;26.60;29.79
9839;BME280;4958;48.150;11.506;2023-05-29T14:48:29;95625.09;;;26.55;29.95
9839;BME280;4958;48.150;11.506;2023-05-29T14:51:13;95618.84;;;26.40;30.32
9839;BME280;4958;48.150;11.506;2023-05-29T14:53:47;95620.94;;;26.43;30.12
9839;BME280;4958;48.150;11.506;2023-05-29T14:56:17;95617.50;;;26.48;30.12
9839;BME280;4958;48.150;11.506;2023-05-29T14:59:01;95609.97;;;26.31;30.43
9839;BME280;4958;48.150;11.506;2023-05-29T15:01:30;95605.38;;;26.42;31.01
9839;BME280;4958;48.150;11.506;2023-05-29T15:04:24;95615.19;;;26.36;31.99
9839;BME280;4958;48.150;11.506;2023-05-29T15:07:01;95609.59;;;25.99;31.43
9839;BME280;4958;48.150;11.506;2023-05-29T15:09:40;95609.88;;;25.97;33.08
9839;BME280;4958;48.150;11.506;2023-05-29T15:12:19;95608.22;;;26.11;32.07
9839;BME280;4958;48.150;11.506;2023-05-29T15:15:13;95601.31;;;26.15;31.56
9839;BME280;4958;48.150;11.506;2023-05-29T15:17:50;95604.19;;;26.19;32.38
9839;BME280;4958;48.150;11.506;2023-05-29T15:20:19;95601.03;;;26.17;31.98
9839;BME280;4958;48.150;11.506;2023-05-29T15:22:45;95597.06;;;26.20;32.49
9839;BME280;4958;48.150;11.506;2023-05-29T15:25:17;95598.53;;;25.97;31.84
9839;BME280;4958;48.150;11.506;2023-05-29T15:28:03;95606.66;;;26.05;32.94
9839;BME280;4958;48.150;11.506;2023-05-29T15:30:37;95606.13;;;26.08;32.87
9839;BME280;4958;48.150;11.506;2023-05-29T15:33:06;95592.47;;;25.96;31.54
9839;BME280;4958;48.150;11.506;2023-05-29T15:35:40;95596.16;;;25.95;32.09
9839;BME280;4958;48.150;11.506;2023-05-29T15:48:49;95593.53;;;25.95;32.84
9839;BME280;4958;48.150;11.506;2023-05-29T15:51:16;95600.41;;;25.91;31.74
9839;BME280;4958;48.150;11.506;2023-05-29T15:53:43;95591.47;;;25.82;30.84
9839;BME280;4958;48.150;11.506;2023-05-29T15:56:13;95594.09;;;25.87;31.95
9839;BME280;4958;48.150;11.506;2023-05-29T15:58:39;95578.81;;;25.84;32.85
9839;BME280;4958;48.150;11.506;2023-05-29T16:01:06;95582.47;;;25.88;32.56
9839;BME280;4958;48.150;11.506;2023-05-29T16:03:34;95591.00;;;25.75;32.36
9839;BME280;4958;48.150;11.506;2023-05-29T16:06:02;95599.75;;;25.65;32.26
9839;BME280;4958;48.150;11.506;2023-05-29T16:08:28;95594.72;;;25.64;32.24
9839;BME280;4958;48.150;11.506;2023-05-29T16:10:55;95590.28;;;25.54;32.34
9839;BME280;4958;48.150;11.506;2023-05-29T16:13:23;95597.16;;;25.45;32.02
9839;BME280;4958;48.150;11.506;2023-05-29T16:15:49;95591.41;;;25.33;31.81
9839;BME280;4958;48.150;11.506;2023-05-29T16:18:16;95600.66;;;25.25;31.73
9839;BME280;4958;48.150;11.506;2023-05-29T16:20:42;95597.81;;;25.06;32.13
9839;BME280;4958;48.150;11.506;2023-05-29T16:23:10;95597.28;;;25.04;32.14
9839;BME280;4958;48.150;11.506;2023-05-29T16:25:37;95594.41;;;25.01;31.97
9839;BME280;4958;48.150;11.506;2023-05-29T16:28:03;95597.81;;;25.06;31.61
9839;BME280;4958;48.150;11.506;2023-05-29T16:30:30;95597.28;;;24.89;31.08